Auckland, New Zealand
Current Conditions -  °F | °C
As of 8:00 PM on Thursday 27 Nov 2014 (Local Time) from NZAA Reporting Station
Clear Clear  
Wind Chill: 16°   Ceiling: Unl
Heat Index: 16°   Visibility: 6mi
Dew Point: 12°   Wind: 12mph
Humidity: 77%   Direction: 290°WNW
Pressure: 29.91"   Gusts: NA
Location:  36.85°S, 174.77°E
Report Text: NZAA 270800Z AUTO 29010KT 9999 NCD 16/12 Q1013 NOSIG
Loading
Personal Weather Stations






























Interactive Weather Map New forecast layout! Learn more

10-Day Weather Forecast

Advertisements
Track Severe Weather on mobile